P Hill, Oregon
Current Conditions -  °F | °C
As of 9:54 PM on Thursday 18 Dec 2014 (Local Time) from KEUG Reporting Station
Light Rain Light Rain  
Wind Chill: 50°   Ceiling: 3900
Heat Index: 50°   Visibility: 8mi
Dew Point: 47°   Wind: 12mph
Humidity: 89%   Direction: 230°SW
Pressure: 29.86"   Gusts: NA
Location:  43.9516°N, 122.922°W
Report Text: KEUG 190554Z 23010KT 8SM -RA BKN039 OVC049 10/08 A2986 RMK AO2 SLP111 P0004 60009 T01000083 10122 20100 53016
Loading
Personal Weather Stations






























Interactive Weather Map New forecast layout! Learn more

10-Day Weather Forecast

Advertisements
Track Severe Weather on mobile